<?xml version="1.0" encoding="UTF-8" standalone="no" ?>
<gpx xmlns="http://www.topografix.com/GPX/1/1" xmlns:xsi="http://www.w3.org/2001/XMLSchema-instance" xsi:schemaLocation="http://www.topografix.com/GPX/1/1 http://www.topografix.com/GPX/1/1/gpx.xsd" version="1.1" creator="VisuGPX - https://www.visugpx.com">
  <metadata>
    <name>Saint Peray Crussol</name>
    <desc><![CDATA[File with points/tracks from Locus Map/3.19.0]]></desc>
  </metadata>
  <trk>
    <name><![CDATA[F07130 Saint Peray Crussol LT DS AM]]></name>
    <trkseg>
      <trkpt lat="44.94183" lon="4.84861">
        <ele>208.73</ele>
        <time>2016-10-18T11:33:39.058Z</time>
      </trkpt>
      <trkpt lat="44.94162" lon="4.84877">
        <ele>212.99</ele>
        <time>2016-10-18T11:34:26.153Z</time>
      </trkpt>
      <trkpt lat="44.94139" lon="4.84883">
        <ele>216.77</ele>
        <time>2016-10-18T11:34:45.162Z</time>
      </trkpt>
      <trkpt lat="44.94123" lon="4.84906">
        <ele>220.47</ele>
        <time>2016-10-18T11:35:10.162Z</time>
      </trkpt>
      <trkpt lat="44.94123" lon="4.84938">
        <ele>222.98</ele>
        <time>2016-10-18T11:35:34.166Z</time>
      </trkpt>
      <trkpt lat="44.94128" lon="4.84969">
        <ele>225</ele>
        <time>2016-10-18T11:35:53.118Z</time>
      </trkpt>
      <trkpt lat="44.9413" lon="4.85001">
        <ele>226.66</ele>
        <time>2016-10-18T11:38:09.155Z</time>
      </trkpt>
      <trkpt lat="44.94116" lon="4.85028">
        <ele>229.05</ele>
        <time>2016-10-18T11:38:22.148Z</time>
      </trkpt>
      <trkpt lat="44.94093" lon="4.85036">
        <ele>232.3</ele>
        <time>2016-10-18T11:38:34.158Z</time>
      </trkpt>
      <trkpt lat="44.94074" lon="4.85018">
        <ele>237.32</ele>
        <time>2016-10-18T11:41:07.104Z</time>
      </trkpt>
      <trkpt lat="44.94064" lon="4.84987">
        <ele>240.11</ele>
        <time>2016-10-18T11:41:22.142Z</time>
      </trkpt>
      <trkpt lat="44.94059" lon="4.84952">
        <ele>238.28</ele>
        <time>2016-10-18T11:41:43.143Z</time>
      </trkpt>
      <trkpt lat="44.94054" lon="4.8492">
        <ele>235.65</ele>
        <time>2016-10-18T11:42:02.146Z</time>
      </trkpt>
      <trkpt lat="44.94042" lon="4.84891">
        <ele>235.13</ele>
        <time>2016-10-18T11:42:23.155Z</time>
      </trkpt>
      <trkpt lat="44.94024" lon="4.84872">
        <ele>235.84</ele>
        <time>2016-10-18T11:42:42.104Z</time>
      </trkpt>
      <trkpt lat="44.94005" lon="4.84852">
        <ele>235.17</ele>
        <time>2016-10-18T11:43:01.126Z</time>
      </trkpt>
      <trkpt lat="44.93987" lon="4.84832">
        <ele>234.47</ele>
        <time>2016-10-18T11:43:21.125Z</time>
      </trkpt>
      <trkpt lat="44.93968" lon="4.84813">
        <ele>234.68</ele>
        <time>2016-10-18T11:43:38.100Z</time>
      </trkpt>
      <trkpt lat="44.93952" lon="4.84789">
        <ele>232.12</ele>
        <time>2016-10-18T11:43:59.098Z</time>
      </trkpt>
      <trkpt lat="44.93932" lon="4.84774">
        <ele>231.57</ele>
        <time>2016-10-18T11:44:13.150Z</time>
      </trkpt>
      <trkpt lat="44.93912" lon="4.84757">
        <ele>229.84</ele>
        <time>2016-10-18T11:44:29.104Z</time>
      </trkpt>
      <trkpt lat="44.93891" lon="4.84743">
        <ele>229.08</ele>
        <time>2016-10-18T11:44:47.151Z</time>
      </trkpt>
      <trkpt lat="44.93869" lon="4.8472">
        <ele>226.15</ele>
        <time>2016-10-18T11:45:38.092Z</time>
      </trkpt>
      <trkpt lat="44.93846" lon="4.84723">
        <ele>230.74</ele>
        <time>2016-10-18T11:45:54.124Z</time>
      </trkpt>
      <trkpt lat="44.93823" lon="4.84707">
        <ele>230.13</ele>
        <time>2016-10-18T11:46:05.136Z</time>
      </trkpt>
      <trkpt lat="44.93814" lon="4.84677">
        <ele>223.97</ele>
        <time>2016-10-18T11:46:30.139Z</time>
      </trkpt>
      <trkpt lat="44.93798" lon="4.84655">
        <ele>221.73</ele>
        <time>2016-10-18T11:46:46.099Z</time>
      </trkpt>
      <trkpt lat="44.93775" lon="4.84645">
        <ele>223.68</ele>
        <time>2016-10-18T11:47:07.107Z</time>
      </trkpt>
      <trkpt lat="44.9375" lon="4.84644">
        <ele>227.44</ele>
        <time>2016-10-18T11:47:25.097Z</time>
      </trkpt>
      <trkpt lat="44.93731" lon="4.84625">
        <ele>225.19</ele>
        <time>2016-10-18T11:47:46.127Z</time>
      </trkpt>
      <trkpt lat="44.93709" lon="4.84612">
        <ele>223.78</ele>
        <time>2016-10-18T11:48:04.125Z</time>
      </trkpt>
      <trkpt lat="44.93687" lon="4.84605">
        <ele>223.74</ele>
        <time>2016-10-18T11:48:22.124Z</time>
      </trkpt>
      <trkpt lat="44.93665" lon="4.84618">
        <ele>228.51</ele>
        <time>2016-10-18T11:48:42.110Z</time>
      </trkpt>
      <trkpt lat="44.93646" lon="4.84638">
        <ele>234.98</ele>
        <time>2016-10-18T11:49:01.152Z</time>
      </trkpt>
      <trkpt lat="44.93626" lon="4.84619">
        <ele>231.27</ele>
        <time>2016-10-18T11:49:22.094Z</time>
      </trkpt>
      <trkpt lat="44.93607" lon="4.84603">
        <ele>228.2</ele>
        <time>2016-10-18T11:49:43.123Z</time>
      </trkpt>
      <trkpt lat="44.93584" lon="4.84596">
        <ele>227.82</ele>
        <time>2016-10-18T11:50:00.102Z</time>
      </trkpt>
      <trkpt lat="44.93561" lon="4.84597">
        <ele>229.65</ele>
        <time>2016-10-18T11:50:20.130Z</time>
      </trkpt>
      <trkpt lat="44.93538" lon="4.84598">
        <ele>231.76</ele>
        <time>2016-10-18T11:50:41.135Z</time>
      </trkpt>
      <trkpt lat="44.93515" lon="4.84593">
        <ele>231.92</ele>
        <time>2016-10-18T11:51:03.086Z</time>
      </trkpt>
      <trkpt lat="44.93493" lon="4.8458">
        <ele>229.53</ele>
        <time>2016-10-18T11:51:24.105Z</time>
      </trkpt>
      <trkpt lat="44.93473" lon="4.84565">
        <ele>226.72</ele>
        <time>2016-10-18T11:51:43.090Z</time>
      </trkpt>
      <trkpt lat="44.93451" lon="4.84575">
        <ele>230.44</ele>
        <time>2016-10-18T11:52:06.066Z</time>
      </trkpt>
      <trkpt lat="44.93427" lon="4.84576">
        <ele>232.53</ele>
        <time>2016-10-18T11:52:27.095Z</time>
      </trkpt>
      <trkpt lat="44.93405" lon="4.84564">
        <ele>233.6</ele>
        <time>2016-10-18T11:52:48.170Z</time>
      </trkpt>
      <trkpt lat="44.93384" lon="4.84576">
        <ele>239.76</ele>
        <time>2016-10-18T11:53:07.084Z</time>
      </trkpt>
      <trkpt lat="44.93366" lon="4.84555">
        <ele>240.72</ele>
        <time>2016-10-18T11:53:36.133Z</time>
      </trkpt>
      <trkpt lat="44.93344" lon="4.84543">
        <ele>243.12</ele>
        <time>2016-10-18T11:53:57.089Z</time>
      </trkpt>
      <trkpt lat="44.93324" lon="4.84528">
        <ele>243.13</ele>
        <time>2016-10-18T11:54:14.131Z</time>
      </trkpt>
      <trkpt lat="44.933" lon="4.84523">
        <ele>242.95</ele>
        <time>2016-10-18T11:54:43.125Z</time>
      </trkpt>
      <trkpt lat="44.93279" lon="4.84538">
        <ele>246.12</ele>
        <time>2016-10-18T11:55:01.095Z</time>
      </trkpt>
      <trkpt lat="44.93258" lon="4.84547">
        <ele>248.44</ele>
        <time>2016-10-18T11:55:19.094Z</time>
      </trkpt>
      <trkpt lat="44.93234" lon="4.84545">
        <ele>248.2</ele>
        <time>2016-10-18T11:55:45.081Z</time>
      </trkpt>
      <trkpt lat="44.93212" lon="4.84546">
        <ele>248.07</ele>
        <time>2016-10-18T11:56:05.099Z</time>
      </trkpt>
      <trkpt lat="44.93189" lon="4.84547">
        <ele>248.18</ele>
        <time>2016-10-18T11:56:26.096Z</time>
      </trkpt>
      <trkpt lat="44.93168" lon="4.84563">
        <ele>252.37</ele>
        <time>2016-10-18T11:56:49.125Z</time>
      </trkpt>
      <trkpt lat="44.93145" lon="4.84557">
        <ele>251.46</ele>
        <time>2016-10-18T11:57:08.133Z</time>
      </trkpt>
      <trkpt lat="44.93153" lon="4.84587">
        <ele>259.26</ele>
        <time>2016-10-18T11:57:29.133Z</time>
      </trkpt>
      <trkpt lat="44.93131" lon="4.84599">
        <ele>262.6</ele>
        <time>2016-10-18T11:57:49.129Z</time>
      </trkpt>
      <trkpt lat="44.93115" lon="4.84621">
        <ele>268.79</ele>
        <time>2016-10-18T11:58:09.130Z</time>
      </trkpt>
      <trkpt lat="44.93115" lon="4.84659">
        <ele>279.36</ele>
        <time>2016-10-18T11:58:20.128Z</time>
      </trkpt>
      <trkpt lat="44.93091" lon="4.84662">
        <ele>281.19</ele>
        <time>2016-10-18T11:58:39.137Z</time>
      </trkpt>
      <trkpt lat="44.93072" lon="4.84635">
        <ele>275.16</ele>
        <time>2016-10-18T11:58:53.148Z</time>
      </trkpt>
      <trkpt lat="44.93081" lon="4.84666">
        <ele>282.96</ele>
        <time>2016-10-18T11:59:00.131Z</time>
      </trkpt>
      <trkpt lat="44.93062" lon="4.84635">
        <ele>276.26</ele>
        <time>2016-10-18T11:59:09.129Z</time>
      </trkpt>
      <trkpt lat="44.93046" lon="4.84608">
        <ele>271.59</ele>
        <time>2016-10-18T11:59:17.135Z</time>
      </trkpt>
      <trkpt lat="44.9303" lon="4.84585">
        <ele>267.99</ele>
        <time>2016-10-18T11:59:40.136Z</time>
      </trkpt>
      <trkpt lat="44.93008" lon="4.84602">
        <ele>275.86</ele>
        <time>2016-10-18T12:00:09.156Z</time>
      </trkpt>
      <trkpt lat="44.92983" lon="4.84602">
        <ele>279.33</ele>
        <time>2016-10-18T12:00:33.131Z</time>
      </trkpt>
      <trkpt lat="44.92972" lon="4.84634">
        <ele>289.42</ele>
        <time>2016-10-18T12:00:56.136Z</time>
      </trkpt>
      <trkpt lat="44.92947" lon="4.84631">
        <ele>292</ele>
        <time>2016-10-18T12:02:29.139Z</time>
      </trkpt>
      <trkpt lat="44.92925" lon="4.84611">
        <ele>289.4</ele>
        <time>2016-10-18T12:02:34.134Z</time>
      </trkpt>
      <trkpt lat="44.92905" lon="4.84594">
        <ele>286.8</ele>
        <time>2016-10-18T12:02:42.159Z</time>
      </trkpt>
      <trkpt lat="44.92886" lon="4.84612">
        <ele>293.29</ele>
        <time>2016-10-18T12:03:00.131Z</time>
      </trkpt>
      <trkpt lat="44.92864" lon="4.84608">
        <ele>293.48</ele>
        <time>2016-10-18T12:03:15.143Z</time>
      </trkpt>
      <trkpt lat="44.92848" lon="4.84631">
        <ele>302.24</ele>
        <time>2016-10-18T12:03:36.127Z</time>
      </trkpt>
      <trkpt lat="44.92826" lon="4.84621">
        <ele>299.06</ele>
        <time>2016-10-18T12:03:52.136Z</time>
      </trkpt>
      <trkpt lat="44.92803" lon="4.84616">
        <ele>296.09</ele>
        <time>2016-10-18T12:04:17.084Z</time>
      </trkpt>
      <trkpt lat="44.92781" lon="4.84631">
        <ele>298.5</ele>
        <time>2016-10-18T12:04:52.135Z</time>
      </trkpt>
      <trkpt lat="44.92761" lon="4.84645">
        <ele>301.26</ele>
        <time>2016-10-18T12:05:06.127Z</time>
      </trkpt>
      <trkpt lat="44.92737" lon="4.84635">
        <ele>300.69</ele>
        <time>2016-10-18T12:05:17.127Z</time>
      </trkpt>
      <trkpt lat="44.92756" lon="4.84654">
        <ele>303.97</ele>
        <time>2016-10-18T12:08:36.141Z</time>
      </trkpt>
      <trkpt lat="44.92776" lon="4.84637">
        <ele>300.02</ele>
        <time>2016-10-18T12:08:55.139Z</time>
      </trkpt>
      <trkpt lat="44.92757" lon="4.84655">
        <ele>304.11</ele>
        <time>2016-10-18T12:09:31.127Z</time>
      </trkpt>
      <trkpt lat="44.92739" lon="4.84674">
        <ele>311.53</ele>
        <time>2016-10-18T12:09:56.092Z</time>
      </trkpt>
      <trkpt lat="44.92753" lon="4.847">
        <ele>321.19</ele>
        <time>2016-10-18T12:10:30.089Z</time>
      </trkpt>
      <trkpt lat="44.92776" lon="4.84692">
        <ele>318.77</ele>
        <time>2016-10-18T12:10:53.121Z</time>
      </trkpt>
      <trkpt lat="44.928" lon="4.84695">
        <ele>322.66</ele>
        <time>2016-10-18T12:11:26.129Z</time>
      </trkpt>
      <trkpt lat="44.92822" lon="4.84706">
        <ele>328.52</ele>
        <time>2016-10-18T12:11:51.140Z</time>
      </trkpt>
      <trkpt lat="44.92843" lon="4.84695">
        <ele>324.54</ele>
        <time>2016-10-18T12:12:09.126Z</time>
      </trkpt>
      <trkpt lat="44.92866" lon="4.8469">
        <ele>320.82</ele>
        <time>2016-10-18T12:12:33.114Z</time>
      </trkpt>
      <trkpt lat="44.92846" lon="4.84704">
        <ele>327.67</ele>
        <time>2016-10-18T12:12:55.134Z</time>
      </trkpt>
      <trkpt lat="44.92844" lon="4.84737">
        <ele>339.13</ele>
        <time>2016-10-18T12:13:27.141Z</time>
      </trkpt>
      <trkpt lat="44.9286" lon="4.84763">
        <ele>346.84</ele>
        <time>2016-10-18T12:15:44.089Z</time>
      </trkpt>
      <trkpt lat="44.92883" lon="4.84777">
        <ele>349.39</ele>
        <time>2016-10-18T12:15:52.116Z</time>
      </trkpt>
      <trkpt lat="44.92903" lon="4.84792">
        <ele>351.47</ele>
        <time>2016-10-18T12:16:00.151Z</time>
      </trkpt>
      <trkpt lat="44.92898" lon="4.84828">
        <ele>361.16</ele>
        <time>2016-10-18T12:16:56.132Z</time>
      </trkpt>
      <trkpt lat="44.92901" lon="4.8486">
        <ele>369.1</ele>
        <time>2016-10-18T12:17:36.126Z</time>
      </trkpt>
      <trkpt lat="44.92916" lon="4.84889">
        <ele>374.21</ele>
        <time>2016-10-18T12:19:42.081Z</time>
      </trkpt>
      <trkpt lat="44.92902" lon="4.84915">
        <ele>378.03</ele>
        <time>2016-10-18T12:21:47.141Z</time>
      </trkpt>
      <trkpt lat="44.92879" lon="4.84923">
        <ele>380.29</ele>
        <time>2016-10-18T12:22:13.118Z</time>
      </trkpt>
      <trkpt lat="44.92859" lon="4.84943">
        <ele>377.37</ele>
        <time>2016-10-18T12:22:32.137Z</time>
      </trkpt>
      <trkpt lat="44.92838" lon="4.84932">
        <ele>382.14</ele>
        <time>2016-10-18T12:31:19.115Z</time>
      </trkpt>
      <trkpt lat="44.92816" lon="4.84921">
        <ele>384.74</ele>
        <time>2016-10-18T12:31:43.089Z</time>
      </trkpt>
      <trkpt lat="44.92795" lon="4.84905">
        <ele>385.06</ele>
        <time>2016-10-18T12:32:07.118Z</time>
      </trkpt>
      <trkpt lat="44.92772" lon="4.84912">
        <ele>383.89</ele>
        <time>2016-10-18T12:32:22.131Z</time>
      </trkpt>
      <trkpt lat="44.9275" lon="4.8492">
        <ele>382.54</ele>
        <time>2016-10-18T12:32:49.117Z</time>
      </trkpt>
      <trkpt lat="44.92727" lon="4.84924">
        <ele>382.27</ele>
        <time>2016-10-18T12:33:13.117Z</time>
      </trkpt>
      <trkpt lat="44.92703" lon="4.84926">
        <ele>383.05</ele>
        <time>2016-10-18T12:34:21.101Z</time>
      </trkpt>
      <trkpt lat="44.92685" lon="4.84945">
        <ele>381.78</ele>
        <time>2016-10-18T12:34:35.079Z</time>
      </trkpt>
      <trkpt lat="44.92664" lon="4.84959">
        <ele>381.92</ele>
        <time>2016-10-18T12:35:02.126Z</time>
      </trkpt>
      <trkpt lat="44.92641" lon="4.84968">
        <ele>383.49</ele>
        <time>2016-10-18T12:35:22.137Z</time>
      </trkpt>
      <trkpt lat="44.92627" lon="4.84995">
        <ele>378.14</ele>
        <time>2016-10-18T12:36:58.115Z</time>
      </trkpt>
      <trkpt lat="44.92604" lon="4.8499">
        <ele>381.12</ele>
        <time>2016-10-18T12:38:47.140Z</time>
      </trkpt>
      <trkpt lat="44.92579" lon="4.84984">
        <ele>381.99</ele>
        <time>2016-10-18T12:41:09.120Z</time>
      </trkpt>
      <trkpt lat="44.92558" lon="4.84968">
        <ele>384.44</ele>
        <time>2016-10-18T12:41:18.119Z</time>
      </trkpt>
      <trkpt lat="44.92536" lon="4.84981">
        <ele>374.97</ele>
        <time>2016-10-18T12:41:36.131Z</time>
      </trkpt>
      <trkpt lat="44.92518" lon="4.8496">
        <ele>377.98</ele>
        <time>2016-10-18T12:46:37.124Z</time>
      </trkpt>
      <trkpt lat="44.92498" lon="4.84939">
        <ele>379.97</ele>
        <time>2016-10-18T12:46:50.138Z</time>
      </trkpt>
      <trkpt lat="44.92485" lon="4.84913">
        <ele>383.97</ele>
        <time>2016-10-18T12:47:07.135Z</time>
      </trkpt>
      <trkpt lat="44.92465" lon="4.84897">
        <ele>381.94</ele>
        <time>2016-10-18T12:47:28.131Z</time>
      </trkpt>
      <trkpt lat="44.92455" lon="4.84868">
        <ele>385.83</ele>
        <time>2016-10-18T12:47:45.130Z</time>
      </trkpt>
      <trkpt lat="44.92433" lon="4.84854">
        <ele>382.77</ele>
        <time>2016-10-18T12:48:13.104Z</time>
      </trkpt>
      <trkpt lat="44.92413" lon="4.84838">
        <ele>380.97</ele>
        <time>2016-10-18T12:51:18.103Z</time>
      </trkpt>
      <trkpt lat="44.92391" lon="4.84832">
        <ele>378.02</ele>
        <time>2016-10-18T12:52:57.084Z</time>
      </trkpt>
      <trkpt lat="44.92373" lon="4.84811">
        <ele>377.13</ele>
        <time>2016-10-18T12:53:26.119Z</time>
      </trkpt>
      <trkpt lat="44.92353" lon="4.84796">
        <ele>375.63</ele>
        <time>2016-10-18T12:53:48.079Z</time>
      </trkpt>
      <trkpt lat="44.92331" lon="4.84785">
        <ele>374.27</ele>
        <time>2016-10-18T12:54:09.127Z</time>
      </trkpt>
      <trkpt lat="44.92308" lon="4.84778">
        <ele>373.58</ele>
        <time>2016-10-18T12:54:36.101Z</time>
      </trkpt>
      <trkpt lat="44.92285" lon="4.84773">
        <ele>373.31</ele>
        <time>2016-10-18T12:55:47.121Z</time>
      </trkpt>
      <trkpt lat="44.92274" lon="4.84744">
        <ele>376.26</ele>
        <time>2016-10-18T12:56:58.120Z</time>
      </trkpt>
      <trkpt lat="44.92263" lon="4.84716">
        <ele>377.44</ele>
        <time>2016-10-18T12:57:15.116Z</time>
      </trkpt>
      <trkpt lat="44.92255" lon="4.84683">
        <ele>376.92</ele>
        <time>2016-10-18T12:57:36.119Z</time>
      </trkpt>
      <trkpt lat="44.92238" lon="4.84663">
        <ele>375.03</ele>
        <time>2016-10-18T12:57:56.117Z</time>
      </trkpt>
      <trkpt lat="44.92227" lon="4.84635">
        <ele>372.27</ele>
        <time>2016-10-18T12:59:14.116Z</time>
      </trkpt>
      <trkpt lat="44.92209" lon="4.84613">
        <ele>368.96</ele>
        <time>2016-10-18T12:59:29.117Z</time>
      </trkpt>
      <trkpt lat="44.92188" lon="4.84603">
        <ele>366</ele>
        <time>2016-10-18T12:59:51.121Z</time>
      </trkpt>
      <trkpt lat="44.92167" lon="4.84591">
        <ele>363.13</ele>
        <time>2016-10-18T13:00:20.117Z</time>
      </trkpt>
      <trkpt lat="44.92152" lon="4.84565">
        <ele>360.36</ele>
        <time>2016-10-18T13:00:56.167Z</time>
      </trkpt>
      <trkpt lat="44.92135" lon="4.84541">
        <ele>356.98</ele>
        <time>2016-10-18T13:01:22.079Z</time>
      </trkpt>
      <trkpt lat="44.92114" lon="4.8453">
        <ele>354.93</ele>
        <time>2016-10-18T13:02:13.120Z</time>
      </trkpt>
      <trkpt lat="44.92103" lon="4.84502">
        <ele>351.78</ele>
        <time>2016-10-18T13:02:23.118Z</time>
      </trkpt>
      <trkpt lat="44.92081" lon="4.84492">
        <ele>349.93</ele>
        <time>2016-10-18T13:02:45.107Z</time>
      </trkpt>
      <trkpt lat="44.92063" lon="4.84471">
        <ele>345.46</ele>
        <time>2016-10-18T13:03:16.120Z</time>
      </trkpt>
      <trkpt lat="44.92047" lon="4.84448">
        <ele>339.46</ele>
        <time>2016-10-18T13:03:39.120Z</time>
      </trkpt>
      <trkpt lat="44.92026" lon="4.84429">
        <ele>334.51</ele>
        <time>2016-10-18T13:04:31.116Z</time>
      </trkpt>
      <trkpt lat="44.92003" lon="4.84415">
        <ele>330.02</ele>
        <time>2016-10-18T13:04:40.107Z</time>
      </trkpt>
      <trkpt lat="44.91987" lon="4.84389">
        <ele>322.44</ele>
        <time>2016-10-18T13:04:55.114Z</time>
      </trkpt>
      <trkpt lat="44.91964" lon="4.84399">
        <ele>319.66</ele>
        <time>2016-10-18T13:05:25.107Z</time>
      </trkpt>
      <trkpt lat="44.91945" lon="4.84416">
        <ele>316.83</ele>
        <time>2016-10-18T13:05:53.117Z</time>
      </trkpt>
      <trkpt lat="44.91942" lon="4.84449">
        <ele>318.62</ele>
        <time>2016-10-18T13:08:52.127Z</time>
      </trkpt>
      <trkpt lat="44.91931" lon="4.84478">
        <ele>314.57</ele>
        <time>2016-10-18T13:09:11.106Z</time>
      </trkpt>
      <trkpt lat="44.91936" lon="4.84509">
        <ele>314.06</ele>
        <time>2016-10-18T13:09:38.116Z</time>
      </trkpt>
      <trkpt lat="44.9195" lon="4.84535">
        <ele>313.94</ele>
        <time>2016-10-18T13:10:07.094Z</time>
      </trkpt>
      <trkpt lat="44.9194" lon="4.84564">
        <ele>303.3</ele>
        <time>2016-10-18T13:10:26.079Z</time>
      </trkpt>
      <trkpt lat="44.91918" lon="4.84575">
        <ele>295.02</ele>
        <time>2016-10-18T13:11:43.119Z</time>
      </trkpt>
      <trkpt lat="44.91896" lon="4.84586">
        <ele>288.43</ele>
        <time>2016-10-18T13:11:58.115Z</time>
      </trkpt>
      <trkpt lat="44.91875" lon="4.84601">
        <ele>282.97</ele>
        <time>2016-10-18T13:12:20.071Z</time>
      </trkpt>
      <trkpt lat="44.91856" lon="4.84622">
        <ele>277.92</ele>
        <time>2016-10-18T13:14:05.126Z</time>
      </trkpt>
      <trkpt lat="44.91834" lon="4.84632">
        <ele>274.88</ele>
        <time>2016-10-18T13:14:23.114Z</time>
      </trkpt>
      <trkpt lat="44.91821" lon="4.8466">
        <ele>270.46</ele>
        <time>2016-10-18T13:15:14.067Z</time>
      </trkpt>
      <trkpt lat="44.91813" lon="4.84629">
        <ele>273.13</ele>
        <time>2016-10-18T13:16:29.294Z</time>
      </trkpt>
      <trkpt lat="44.91802" lon="4.846">
        <ele>273.44</ele>
        <time>2016-10-18T13:16:52.064Z</time>
      </trkpt>
      <trkpt lat="44.91787" lon="4.84576">
        <ele>271.91</ele>
        <time>2016-10-18T13:17:19.060Z</time>
      </trkpt>
      <trkpt lat="44.91773" lon="4.84549">
        <ele>270</ele>
        <time>2016-10-18T13:17:38.119Z</time>
      </trkpt>
      <trkpt lat="44.9176" lon="4.84523">
        <ele>267.81</ele>
        <time>2016-10-18T13:17:58.105Z</time>
      </trkpt>
      <trkpt lat="44.91744" lon="4.84498">
        <ele>265.16</ele>
        <time>2016-10-18T13:18:17.102Z</time>
      </trkpt>
      <trkpt lat="44.91729" lon="4.84476">
        <ele>262.93</ele>
        <time>2016-10-18T13:18:36.100Z</time>
      </trkpt>
      <trkpt lat="44.91709" lon="4.84459">
        <ele>260.44</ele>
        <time>2016-10-18T13:18:54.113Z</time>
      </trkpt>
      <trkpt lat="44.91689" lon="4.84443">
        <ele>258.02</ele>
        <time>2016-10-18T13:19:14.115Z</time>
      </trkpt>
      <trkpt lat="44.91668" lon="4.84429">
        <ele>255.69</ele>
        <time>2016-10-18T13:19:39.092Z</time>
      </trkpt>
      <trkpt lat="44.91671" lon="4.84398">
        <ele>253.83</ele>
        <time>2016-10-18T13:21:47.109Z</time>
      </trkpt>
      <trkpt lat="44.91679" lon="4.84368">
        <ele>251.55</ele>
        <time>2016-10-18T13:22:04.167Z</time>
      </trkpt>
      <trkpt lat="44.91697" lon="4.84346">
        <ele>251.47</ele>
        <time>2016-10-18T13:22:49.115Z</time>
      </trkpt>
      <trkpt lat="44.9172" lon="4.8434">
        <ele>254.31</ele>
        <time>2016-10-18T13:23:01.124Z</time>
      </trkpt>
      <trkpt lat="44.91743" lon="4.84331">
        <ele>256.86</ele>
        <time>2016-10-18T13:23:17.107Z</time>
      </trkpt>
      <trkpt lat="44.91746" lon="4.84297">
        <ele>254.59</ele>
        <time>2016-10-18T13:23:33.115Z</time>
      </trkpt>
      <trkpt lat="44.91763" lon="4.84275">
        <ele>254.9</ele>
        <time>2016-10-18T13:23:53.118Z</time>
      </trkpt>
      <trkpt lat="44.91775" lon="4.84242">
        <ele>253.94</ele>
        <time>2016-10-18T13:24:06.116Z</time>
      </trkpt>
      <trkpt lat="44.91798" lon="4.84244">
        <ele>256.03</ele>
        <time>2016-10-18T13:24:28.251Z</time>
      </trkpt>
      <trkpt lat="44.91821" lon="4.84243">
        <ele>257.89</ele>
        <time>2016-10-18T13:24:55.113Z</time>
      </trkpt>
      <trkpt lat="44.91843" lon="4.84229">
        <ele>257.68</ele>
        <time>2016-10-18T13:26:07.094Z</time>
      </trkpt>
      <trkpt lat="44.91867" lon="4.84222">
        <ele>258.53</ele>
        <time>2016-10-18T13:27:09.110Z</time>
      </trkpt>
      <trkpt lat="44.91889" lon="4.84212">
        <ele>258.91</ele>
        <time>2016-10-18T13:27:23.107Z</time>
      </trkpt>
      <trkpt lat="44.91903" lon="4.84187">
        <ele>255.58</ele>
        <time>2016-10-18T13:27:39.101Z</time>
      </trkpt>
      <trkpt lat="44.91925" lon="4.84174">
        <ele>255.17</ele>
        <time>2016-10-18T13:27:57.109Z</time>
      </trkpt>
      <trkpt lat="44.9194" lon="4.8415">
        <ele>251.55</ele>
        <time>2016-10-18T13:28:16.111Z</time>
      </trkpt>
      <trkpt lat="44.91964" lon="4.84135">
        <ele>249.82</ele>
        <time>2016-10-18T13:28:35.119Z</time>
      </trkpt>
      <trkpt lat="44.91986" lon="4.84123">
        <ele>247.84</ele>
        <time>2016-10-18T13:28:54.111Z</time>
      </trkpt>
      <trkpt lat="44.92008" lon="4.84107">
        <ele>244.42</ele>
        <time>2016-10-18T13:29:10.098Z</time>
      </trkpt>
      <trkpt lat="44.92031" lon="4.84114">
        <ele>246.45</ele>
        <time>2016-10-18T13:29:27.079Z</time>
      </trkpt>
      <trkpt lat="44.92054" lon="4.84115">
        <ele>246.65</ele>
        <time>2016-10-18T13:29:47.115Z</time>
      </trkpt>
      <trkpt lat="44.92076" lon="4.84131">
        <ele>249.57</ele>
        <time>2016-10-18T13:30:08.072Z</time>
      </trkpt>
      <trkpt lat="44.92098" lon="4.84138">
        <ele>250.08</ele>
        <time>2016-10-18T13:30:27.049Z</time>
      </trkpt>
      <trkpt lat="44.9212" lon="4.84124">
        <ele>246.01</ele>
        <time>2016-10-18T13:30:46.092Z</time>
      </trkpt>
      <trkpt lat="44.92143" lon="4.84123">
        <ele>244.05</ele>
        <time>2016-10-18T13:31:02.099Z</time>
      </trkpt>
      <trkpt lat="44.92166" lon="4.84121">
        <ele>242.92</ele>
        <time>2016-10-18T13:31:21.102Z</time>
      </trkpt>
      <trkpt lat="44.92189" lon="4.84118">
        <ele>242.76</ele>
        <time>2016-10-18T13:32:31.059Z</time>
      </trkpt>
      <trkpt lat="44.92209" lon="4.84103">
        <ele>241.7</ele>
        <time>2016-10-18T13:32:57.070Z</time>
      </trkpt>
      <trkpt lat="44.92228" lon="4.84086">
        <ele>240.67</ele>
        <time>2016-10-18T13:33:23.069Z</time>
      </trkpt>
      <trkpt lat="44.92251" lon="4.84084">
        <ele>241.1</ele>
        <time>2016-10-18T13:33:44.128Z</time>
      </trkpt>
      <trkpt lat="44.92274" lon="4.84085">
        <ele>240</ele>
        <time>2016-10-18T13:34:01.120Z</time>
      </trkpt>
      <trkpt lat="44.92298" lon="4.84092">
        <ele>238.5</ele>
        <time>2016-10-18T13:34:29.131Z</time>
      </trkpt>
      <trkpt lat="44.9232" lon="4.84109">
        <ele>237.94</ele>
        <time>2016-10-18T13:35:54.116Z</time>
      </trkpt>
      <trkpt lat="44.92338" lon="4.84131">
        <ele>238.37</ele>
        <time>2016-10-18T13:36:09.124Z</time>
      </trkpt>
      <trkpt lat="44.92353" lon="4.84155">
        <ele>239.87</ele>
        <time>2016-10-18T13:36:24.122Z</time>
      </trkpt>
      <trkpt lat="44.92365" lon="4.84184">
        <ele>242.74</ele>
        <time>2016-10-18T13:37:18.134Z</time>
      </trkpt>
      <trkpt lat="44.92382" lon="4.84206">
        <ele>244.28</ele>
        <time>2016-10-18T13:37:35.116Z</time>
      </trkpt>
      <trkpt lat="44.92397" lon="4.8423">
        <ele>245.8</ele>
        <time>2016-10-18T13:37:54.110Z</time>
      </trkpt>
      <trkpt lat="44.92413" lon="4.84255">
        <ele>247.96</ele>
        <time>2016-10-18T13:38:15.139Z</time>
      </trkpt>
      <trkpt lat="44.92431" lon="4.84278">
        <ele>251.42</ele>
        <time>2016-10-18T13:38:38.127Z</time>
      </trkpt>
      <trkpt lat="44.92449" lon="4.84258">
        <ele>248.4</ele>
        <time>2016-10-18T13:38:58.109Z</time>
      </trkpt>
      <trkpt lat="44.92451" lon="4.84226">
        <ele>244.22</ele>
        <time>2016-10-18T13:39:17.120Z</time>
      </trkpt>
      <trkpt lat="44.92459" lon="4.84255">
        <ele>248.48</ele>
        <time>2016-10-18T13:58:42.101Z</time>
      </trkpt>
      <trkpt lat="44.92457" lon="4.84288">
        <ele>254.17</ele>
        <time>2016-10-18T13:58:59.096Z</time>
      </trkpt>
      <trkpt lat="44.92449" lon="4.84317">
        <ele>259.87</ele>
        <time>2016-10-18T13:59:21.088Z</time>
      </trkpt>
      <trkpt lat="44.92456" lon="4.84349">
        <ele>267.41</ele>
        <time>2016-10-18T13:59:48.088Z</time>
      </trkpt>
      <trkpt lat="44.92437" lon="4.84369">
        <ele>270.53</ele>
        <time>2016-10-18T14:01:08.050Z</time>
      </trkpt>
      <trkpt lat="44.92435" lon="4.84403">
        <ele>277.89</ele>
        <time>2016-10-18T14:01:18.045Z</time>
      </trkpt>
      <trkpt lat="44.92434" lon="4.84436">
        <ele>284.29</ele>
        <time>2016-10-18T14:01:29.088Z</time>
      </trkpt>
      <trkpt lat="44.92412" lon="4.84444">
        <ele>285.4</ele>
        <time>2016-10-18T14:01:49.051Z</time>
      </trkpt>
      <trkpt lat="44.92397" lon="4.8447">
        <ele>293.08</ele>
        <time>2016-10-18T14:02:08.058Z</time>
      </trkpt>
      <trkpt lat="44.92418" lon="4.84485">
        <ele>292.57</ele>
        <time>2016-10-18T14:02:52.080Z</time>
      </trkpt>
      <trkpt lat="44.92429" lon="4.84515">
        <ele>299.49</ele>
        <time>2016-10-18T14:03:27.100Z</time>
      </trkpt>
      <trkpt lat="44.9243" lon="4.84548">
        <ele>308.6</ele>
        <time>2016-10-18T14:03:49.095Z</time>
      </trkpt>
      <trkpt lat="44.92408" lon="4.84556">
        <ele>312.26</ele>
        <time>2016-10-18T14:04:13.060Z</time>
      </trkpt>
      <trkpt lat="44.92427" lon="4.84534">
        <ele>304.63</ele>
        <time>2016-10-18T14:09:08.061Z</time>
      </trkpt>
      <trkpt lat="44.92435" lon="4.84503">
        <ele>297.11</ele>
        <time>2016-10-18T14:09:33.055Z</time>
      </trkpt>
      <trkpt lat="44.92442" lon="4.84472">
        <ele>291.77</ele>
        <time>2016-10-18T14:09:58.020Z</time>
      </trkpt>
      <trkpt lat="44.9242" lon="4.84483">
        <ele>292.1</ele>
        <time>2016-10-18T14:10:27.063Z</time>
      </trkpt>
      <trkpt lat="44.92427" lon="4.84452">
        <ele>286.54</ele>
        <time>2016-10-18T14:11:01.073Z</time>
      </trkpt>
      <trkpt lat="44.92438" lon="4.84424">
        <ele>282.56</ele>
        <time>2016-10-18T14:11:28.082Z</time>
      </trkpt>
      <trkpt lat="44.92442" lon="4.84392">
        <ele>276.38</ele>
        <time>2016-10-18T14:11:53.122Z</time>
      </trkpt>
      <trkpt lat="44.92444" lon="4.84359">
        <ele>268.83</ele>
        <time>2016-10-18T14:12:15.046Z</time>
      </trkpt>
      <trkpt lat="44.92454" lon="4.84329">
        <ele>262.75</ele>
        <time>2016-10-18T14:13:14.051Z</time>
      </trkpt>
      <trkpt lat="44.9246" lon="4.84297">
        <ele>256.21</ele>
        <time>2016-10-18T14:13:31.113Z</time>
      </trkpt>
      <trkpt lat="44.92484" lon="4.84294">
        <ele>256.77</ele>
        <time>2016-10-18T14:15:51.077Z</time>
      </trkpt>
      <trkpt lat="44.92507" lon="4.84299">
        <ele>257.86</ele>
        <time>2016-10-18T14:16:09.063Z</time>
      </trkpt>
      <trkpt lat="44.9253" lon="4.84311">
        <ele>259.93</ele>
        <time>2016-10-18T14:16:28.061Z</time>
      </trkpt>
      <trkpt lat="44.92551" lon="4.84325">
        <ele>262.2</ele>
        <time>2016-10-18T14:16:49.065Z</time>
      </trkpt>
      <trkpt lat="44.92567" lon="4.84351">
        <ele>267.5</ele>
        <time>2016-10-18T14:17:08.074Z</time>
      </trkpt>
      <trkpt lat="44.92588" lon="4.84363">
        <ele>268.51</ele>
        <time>2016-10-18T14:17:27.064Z</time>
      </trkpt>
      <trkpt lat="44.92604" lon="4.84386">
        <ele>272.09</ele>
        <time>2016-10-18T14:17:50.061Z</time>
      </trkpt>
      <trkpt lat="44.92623" lon="4.84405">
        <ele>273.34</ele>
        <time>2016-10-18T14:18:16.062Z</time>
      </trkpt>
      <trkpt lat="44.92644" lon="4.84415">
        <ele>272.15</ele>
        <time>2016-10-18T14:18:33.080Z</time>
      </trkpt>
      <trkpt lat="44.92666" lon="4.8443">
        <ele>271.96</ele>
        <time>2016-10-18T14:19:08.096Z</time>
      </trkpt>
      <trkpt lat="44.92686" lon="4.8445">
        <ele>273.25</ele>
        <time>2016-10-18T14:19:25.059Z</time>
      </trkpt>
      <trkpt lat="44.92698" lon="4.84478">
        <ele>277.19</ele>
        <time>2016-10-18T14:19:57.040Z</time>
      </trkpt>
      <trkpt lat="44.92704" lon="4.84509">
        <ele>282.42</ele>
        <time>2016-10-18T14:22:29.086Z</time>
      </trkpt>
      <trkpt lat="44.92716" lon="4.84537">
        <ele>285.38</ele>
        <time>2016-10-18T14:22:39.083Z</time>
      </trkpt>
      <trkpt lat="44.92715" lon="4.84569">
        <ele>292.41</ele>
        <time>2016-10-18T14:22:57.074Z</time>
      </trkpt>
      <trkpt lat="44.92715" lon="4.84605">
        <ele>299.37</ele>
        <time>2016-10-18T14:23:17.091Z</time>
      </trkpt>
      <trkpt lat="44.92724" lon="4.84637">
        <ele>303.15</ele>
        <time>2016-10-18T14:23:34.090Z</time>
      </trkpt>
      <trkpt lat="44.92747" lon="4.84651">
        <ele>303.51</ele>
        <time>2016-10-18T14:25:10.087Z</time>
      </trkpt>
      <trkpt lat="44.9277" lon="4.84644">
        <ele>301.42</ele>
        <time>2016-10-18T14:25:39.089Z</time>
      </trkpt>
      <trkpt lat="44.92755" lon="4.84668">
        <ele>308.34</ele>
        <time>2016-10-18T14:26:41.043Z</time>
      </trkpt>
      <trkpt lat="44.92733" lon="4.84682">
        <ele>314.98</ele>
        <time>2016-10-18T14:27:03.018Z</time>
      </trkpt>
      <trkpt lat="44.92755" lon="4.8469">
        <ele>316.64</ele>
        <time>2016-10-18T14:28:16.197Z</time>
      </trkpt>
      <trkpt lat="44.92778" lon="4.84683">
        <ele>315.1</ele>
        <time>2016-10-18T14:28:41.116Z</time>
      </trkpt>
      <trkpt lat="44.92801" lon="4.84685">
        <ele>318.92</ele>
        <time>2016-10-18T14:29:14.106Z</time>
      </trkpt>
      <trkpt lat="44.92824" lon="4.84691">
        <ele>323.42</ele>
        <time>2016-10-18T14:29:35.101Z</time>
      </trkpt>
      <trkpt lat="44.92847" lon="4.84691">
        <ele>323.09</ele>
        <time>2016-10-18T14:29:55.076Z</time>
      </trkpt>
      <trkpt lat="44.92839" lon="4.84722">
        <ele>334.27</ele>
        <time>2016-10-18T14:30:58.059Z</time>
      </trkpt>
      <trkpt lat="44.9286" lon="4.84735">
        <ele>337.9</ele>
        <time>2016-10-18T14:32:53.112Z</time>
      </trkpt>
      <trkpt lat="44.92879" lon="4.84756">
        <ele>343.46</ele>
        <time>2016-10-18T14:33:11.082Z</time>
      </trkpt>
      <trkpt lat="44.92897" lon="4.84776">
        <ele>347.55</ele>
        <time>2016-10-18T14:33:34.072Z</time>
      </trkpt>
      <trkpt lat="44.92918" lon="4.84789">
        <ele>348.65</ele>
        <time>2016-10-18T14:34:05.083Z</time>
      </trkpt>
      <trkpt lat="44.92902" lon="4.84815">
        <ele>357.52</ele>
        <time>2016-10-18T14:34:47.080Z</time>
      </trkpt>
      <trkpt lat="44.92904" lon="4.84847">
        <ele>365.17</ele>
        <time>2016-10-18T14:35:27.069Z</time>
      </trkpt>
      <trkpt lat="44.92915" lon="4.84874">
        <ele>371.08</ele>
        <time>2016-10-18T14:36:00.042Z</time>
      </trkpt>
      <trkpt lat="44.92904" lon="4.84903">
        <ele>377.63</ele>
        <time>2016-10-18T14:36:31.072Z</time>
      </trkpt>
      <trkpt lat="44.92926" lon="4.8492">
        <ele>374.45</ele>
        <time>2016-10-18T14:38:12.082Z</time>
      </trkpt>
      <trkpt lat="44.9295" lon="4.84922">
        <ele>370.04</ele>
        <time>2016-10-18T14:38:40.067Z</time>
      </trkpt>
      <trkpt lat="44.92971" lon="4.84911">
        <ele>366.85</ele>
        <time>2016-10-18T14:38:59.061Z</time>
      </trkpt>
      <trkpt lat="44.92993" lon="4.84922">
        <ele>363.25</ele>
        <time>2016-10-18T14:39:24.039Z</time>
      </trkpt>
      <trkpt lat="44.93015" lon="4.84919">
        <ele>362</ele>
        <time>2016-10-18T14:39:42.038Z</time>
      </trkpt>
      <trkpt lat="44.93039" lon="4.84915">
        <ele>361.89</ele>
        <time>2016-10-18T14:40:11.024Z</time>
      </trkpt>
      <trkpt lat="44.93062" lon="4.84926">
        <ele>361.74</ele>
        <time>2016-10-18T14:40:36.075Z</time>
      </trkpt>
      <trkpt lat="44.93081" lon="4.84942">
        <ele>360.23</ele>
        <time>2016-10-18T14:44:45.027Z</time>
      </trkpt>
      <trkpt lat="44.93104" lon="4.8494">
        <ele>362.49</ele>
        <time>2016-10-18T14:45:05.033Z</time>
      </trkpt>
      <trkpt lat="44.93127" lon="4.84947">
        <ele>364.4</ele>
        <time>2016-10-18T14:45:28.077Z</time>
      </trkpt>
      <trkpt lat="44.93149" lon="4.84957">
        <ele>366.37</ele>
        <time>2016-10-18T14:47:31.064Z</time>
      </trkpt>
      <trkpt lat="44.93171" lon="4.84968">
        <ele>368.49</ele>
        <time>2016-10-18T14:47:50.093Z</time>
      </trkpt>
      <trkpt lat="44.93194" lon="4.84971">
        <ele>371.85</ele>
        <time>2016-10-18T14:48:07.062Z</time>
      </trkpt>
      <trkpt lat="44.93215" lon="4.84984">
        <ele>375.31</ele>
        <time>2016-10-18T14:48:39.055Z</time>
      </trkpt>
      <trkpt lat="44.93227" lon="4.85011">
        <ele>374.66</ele>
        <time>2016-10-18T14:49:03.082Z</time>
      </trkpt>
      <trkpt lat="44.93248" lon="4.85027">
        <ele>374.08</ele>
        <time>2016-10-18T14:49:26.068Z</time>
      </trkpt>
      <trkpt lat="44.93269" lon="4.85043">
        <ele>371.25</ele>
        <time>2016-10-18T14:49:56.074Z</time>
      </trkpt>
      <trkpt lat="44.93291" lon="4.85041">
        <ele>373.89</ele>
        <time>2016-10-18T14:50:15.068Z</time>
      </trkpt>
      <trkpt lat="44.93313" lon="4.85051">
        <ele>371.78</ele>
        <time>2016-10-18T14:54:11.066Z</time>
      </trkpt>
      <trkpt lat="44.93336" lon="4.85045">
        <ele>374.07</ele>
        <time>2016-10-18T14:54:20.065Z</time>
      </trkpt>
      <trkpt lat="44.93358" lon="4.85042">
        <ele>374.18</ele>
        <time>2016-10-18T14:54:40.034Z</time>
      </trkpt>
      <trkpt lat="44.9338" lon="4.85034">
        <ele>373.97</ele>
        <time>2016-10-18T14:54:58.038Z</time>
      </trkpt>
      <trkpt lat="44.93404" lon="4.8503">
        <ele>372.56</ele>
        <time>2016-10-18T14:55:19.084Z</time>
      </trkpt>
      <trkpt lat="44.93427" lon="4.85031">
        <ele>371.06</ele>
        <time>2016-10-18T14:55:41.067Z</time>
      </trkpt>
      <trkpt lat="44.93449" lon="4.85027">
        <ele>369.36</ele>
        <time>2016-10-18T14:56:07.077Z</time>
      </trkpt>
      <trkpt lat="44.93471" lon="4.85037">
        <ele>367.8</ele>
        <time>2016-10-18T14:56:44.080Z</time>
      </trkpt>
      <trkpt lat="44.93492" lon="4.85052">
        <ele>366.47</ele>
        <time>2016-10-18T14:57:24.068Z</time>
      </trkpt>
      <trkpt lat="44.93503" lon="4.85081">
        <ele>360.53</ele>
        <time>2016-10-18T14:57:48.038Z</time>
      </trkpt>
      <trkpt lat="44.93514" lon="4.85108">
        <ele>345.72</ele>
        <time>2016-10-18T14:59:00.040Z</time>
      </trkpt>
      <trkpt lat="44.93533" lon="4.85127">
        <ele>336.48</ele>
        <time>2016-10-18T14:59:20.034Z</time>
      </trkpt>
      <trkpt lat="44.9355" lon="4.85105">
        <ele>359.6</ele>
        <time>2016-10-18T15:01:33.064Z</time>
      </trkpt>
      <trkpt lat="44.93572" lon="4.85095">
        <ele>369.87</ele>
        <time>2016-10-18T15:01:52.079Z</time>
      </trkpt>
      <trkpt lat="44.93592" lon="4.85111">
        <ele>364.26</ele>
        <time>2016-10-18T15:02:15.025Z</time>
      </trkpt>
      <trkpt lat="44.93616" lon="4.85116">
        <ele>361.86</ele>
        <time>2016-10-18T15:03:02.028Z</time>
      </trkpt>
      <trkpt lat="44.93638" lon="4.85126">
        <ele>356.53</ele>
        <time>2016-10-18T15:03:23.053Z</time>
      </trkpt>
      <trkpt lat="44.93658" lon="4.85145">
        <ele>348.41</ele>
        <time>2016-10-18T15:03:43.086Z</time>
      </trkpt>
      <trkpt lat="44.93681" lon="4.85144">
        <ele>347.13</ele>
        <time>2016-10-18T15:04:07.067Z</time>
      </trkpt>
      <trkpt lat="44.93704" lon="4.85139">
        <ele>344.67</ele>
        <time>2016-10-18T15:04:48.076Z</time>
      </trkpt>
      <trkpt lat="44.93727" lon="4.85139">
        <ele>339.83</ele>
        <time>2016-10-18T15:05:35.062Z</time>
      </trkpt>
      <trkpt lat="44.93744" lon="4.8516">
        <ele>333.77</ele>
        <time>2016-10-18T15:05:56.075Z</time>
      </trkpt>
      <trkpt lat="44.93766" lon="4.85163">
        <ele>328.84</ele>
        <time>2016-10-18T15:07:28.072Z</time>
      </trkpt>
      <trkpt lat="44.93788" lon="4.85172">
        <ele>322.92</ele>
        <time>2016-10-18T15:08:46.078Z</time>
      </trkpt>
      <trkpt lat="44.93809" lon="4.85182">
        <ele>317.55</ele>
        <time>2016-10-18T15:09:24.081Z</time>
      </trkpt>
      <trkpt lat="44.93834" lon="4.85193">
        <ele>313.01</ele>
        <time>2016-10-18T15:10:43.069Z</time>
      </trkpt>
      <trkpt lat="44.93856" lon="4.85198">
        <ele>308.15</ele>
        <time>2016-10-18T15:11:43.067Z</time>
      </trkpt>
      <trkpt lat="44.93873" lon="4.85221">
        <ele>306.43</ele>
        <time>2016-10-18T15:11:58.070Z</time>
      </trkpt>
      <trkpt lat="44.9385" lon="4.85229">
        <ele>310.48</ele>
        <time>2016-10-18T15:13:11.053Z</time>
      </trkpt>
      <trkpt lat="44.93851" lon="4.85261">
        <ele>299.97</ele>
        <time>2016-10-18T15:14:22.055Z</time>
      </trkpt>
      <trkpt lat="44.9386" lon="4.85232">
        <ele>309.07</ele>
        <time>2016-10-18T15:23:39.031Z</time>
      </trkpt>
      <trkpt lat="44.93882" lon="4.85223">
        <ele>304.3</ele>
        <time>2016-10-18T15:25:06.061Z</time>
      </trkpt>
      <trkpt lat="44.93895" lon="4.85248">
        <ele>300.52</ele>
        <time>2016-10-18T15:25:57.061Z</time>
      </trkpt>
      <trkpt lat="44.93919" lon="4.8525">
        <ele>294.44</ele>
        <time>2016-10-18T15:26:45.067Z</time>
      </trkpt>
      <trkpt lat="44.93923" lon="4.85284">
        <ele>286</ele>
        <time>2016-10-18T15:28:00.072Z</time>
      </trkpt>
      <trkpt lat="44.93926" lon="4.85316">
        <ele>272.62</ele>
        <time>2016-10-18T15:28:31.070Z</time>
      </trkpt>
      <trkpt lat="44.93937" lon="4.85287">
        <ele>282.15</ele>
        <time>2016-10-18T15:30:59.998Z</time>
      </trkpt>
      <trkpt lat="44.93957" lon="4.85269">
        <ele>278.25</ele>
        <time>2016-10-18T15:32:01.085Z</time>
      </trkpt>
      <trkpt lat="44.93969" lon="4.85239">
        <ele>274.05</ele>
        <time>2016-10-18T15:32:35.021Z</time>
      </trkpt>
      <trkpt lat="44.93978" lon="4.85211">
        <ele>266.69</ele>
        <time>2016-10-18T15:33:00.075Z</time>
      </trkpt>
      <trkpt lat="44.93992" lon="4.85186">
        <ele>258.06</ele>
        <time>2016-10-18T15:33:30.062Z</time>
      </trkpt>
      <trkpt lat="44.94002" lon="4.85215">
        <ele>256.54</ele>
        <time>2016-10-18T15:34:45.057Z</time>
      </trkpt>
      <trkpt lat="44.94007" lon="4.85183">
        <ele>252.34</ele>
        <time>2016-10-18T15:35:37.057Z</time>
      </trkpt>
      <trkpt lat="44.94002" lon="4.85151">
        <ele>252.82</ele>
        <time>2016-10-18T15:35:58.017Z</time>
      </trkpt>
      <trkpt lat="44.93986" lon="4.85128">
        <ele>257</ele>
        <time>2016-10-18T15:36:19.051Z</time>
      </trkpt>
      <trkpt lat="44.93999" lon="4.851">
        <ele>252.86</ele>
        <time>2016-10-18T15:36:32.064Z</time>
      </trkpt>
      <trkpt lat="44.9402" lon="4.8509">
        <ele>246.79</ele>
        <time>2016-10-18T15:36:51.017Z</time>
      </trkpt>
      <trkpt lat="44.9404" lon="4.8507">
        <ele>242.59</ele>
        <time>2016-10-18T15:37:18.069Z</time>
      </trkpt>
      <trkpt lat="44.94059" lon="4.85051">
        <ele>239.36</ele>
        <time>2016-10-18T15:37:31.018Z</time>
      </trkpt>
      <trkpt lat="44.9408" lon="4.85034">
        <ele>235.28</ele>
        <time>2016-10-18T15:38:07.039Z</time>
      </trkpt>
      <trkpt lat="44.94102" lon="4.85026">
        <ele>231.07</ele>
        <time>2016-10-18T15:38:25.043Z</time>
      </trkpt>
      <trkpt lat="44.94125" lon="4.85031">
        <ele>227.99</ele>
        <time>2016-10-18T15:38:49.038Z</time>
      </trkpt>
      <trkpt lat="44.94128" lon="4.84999">
        <ele>226.93</ele>
        <time>2016-10-18T15:39:14.018Z</time>
      </trkpt>
      <trkpt lat="44.94114" lon="4.84971">
        <ele>227.26</ele>
        <time>2016-10-18T15:40:01.056Z</time>
      </trkpt>
      <trkpt lat="44.94119" lon="4.84939">
        <ele>223.75</ele>
        <time>2016-10-18T15:40:16.044Z</time>
      </trkpt>
      <trkpt lat="44.94122" lon="4.84907">
        <ele>220.7</ele>
        <time>2016-10-18T15:40:39.043Z</time>
      </trkpt>
      <trkpt lat="44.94137" lon="4.84883">
        <ele>217.1</ele>
        <time>2016-10-18T15:41:01.051Z</time>
      </trkpt>
      <trkpt lat="44.94157" lon="4.84866">
        <ele>212.85</ele>
        <time>2016-10-18T15:41:27.067Z</time>
      </trkpt>
      <trkpt lat="44.94179" lon="4.84856">
        <ele>208.86</ele>
        <time>2016-10-18T15:41:54.067Z</time>
      </trkpt>
      <trkpt lat="44.9418" lon="4.8486">
        <ele>208.95</ele>
        <time>2016-10-18T15:44:31.085Z</time>
      </trkpt>
    </trkseg>
  </trk>
</gpx>